createdAt,value
2018-02-13T00:00:19.493Z,-3.80
2018-02-13T00:02:48.202Z,-3.90
2018-02-13T00:05:16.097Z,-3.90
2018-02-13T00:07:44.041Z,-3.80
2018-02-13T00:10:11.923Z,-3.80
2018-02-13T00:12:43.570Z,-3.80
2018-02-13T00:15:11.453Z,-3.90
2018-02-13T00:17:39.389Z,-4.00
2018-02-13T00:20:07.272Z,-3.90
2018-02-13T00:22:46.996Z,-4.00
2018-02-13T00:25:14.871Z,-4.00
2018-02-13T00:27:42.779Z,-3.90
2018-02-13T00:30:10.661Z,-4.00
2018-02-13T00:32:42.478Z,-3.90
2018-02-13T00:35:10.360Z,-4.00
2018-02-13T00:37:38.731Z,-4.00
2018-02-13T00:40:06.608Z,-4.10
2018-02-13T00:42:37.476Z,-4.10
2018-02-13T00:45:05.579Z,-4.10
2018-02-13T00:47:34.269Z,-4.20
2018-02-13T00:50:03.149Z,-4.20
2018-02-13T00:52:31.063Z,-4.20
2018-02-13T00:54:58.928Z,-4.20
2018-02-13T00:57:26.859Z,-4.20
2018-02-13T00:59:55.516Z,-4.30
2018-02-13T01:02:24.637Z,-4.30
2018-02-13T01:04:52.546Z,-4.30
2018-02-13T01:07:20.456Z,-4.30
2018-02-13T01:09:48.338Z,-4.40
2018-02-13T01:12:18.420Z,-4.30
2018-02-13T01:14:46.309Z,-4.40
2018-02-13T01:17:14.234Z,-4.30
2018-02-13T01:19:42.131Z,-4.20
2018-02-13T01:22:10.053Z,-4.20
2018-02-13T01:24:38.702Z,-4.00
2018-02-13T01:27:06.646Z,-4.10
2018-02-13T01:29:34.532Z,-4.00
2018-02-13T01:32:06.077Z,-4.00
2018-02-13T01:34:33.970Z,-3.80
2018-02-13T01:37:01.847Z,-3.80
2018-02-13T01:39:29.772Z,-3.80
2018-02-13T01:41:57.659Z,-3.70
2018-02-13T01:44:25.579Z,-3.70
2018-02-13T01:46:54.228Z,-3.60
2018-02-13T01:49:22.151Z,-3.60
2018-02-13T01:51:50.020Z,-3.50
2018-02-13T01:54:17.983Z,-3.40
2018-02-13T01:56:45.870Z,-3.30
2018-02-13T01:59:13.813Z,-3.40
2018-02-13T02:01:41.949Z,-3.20
2018-02-13T02:04:09.882Z,-3.10
2018-02-13T02:06:37.773Z,-3.20
2018-02-13T02:09:05.744Z,-3.10
2018-02-13T02:11:33.634Z,-3.00
2018-02-13T02:14:01.566Z,-3.00
2018-02-13T02:16:29.451Z,-3.00
2018-02-13T02:18:57.378Z,-2.90
2018-02-13T02:21:25.271Z,-2.80
2018-02-13T02:23:57.104Z,-2.90
2018-02-13T02:26:25.010Z,-2.90
2018-02-13T02:28:52.928Z,-2.80
2018-02-13T02:31:21.569Z,-2.70
2018-02-13T02:33:49.492Z,-2.70
2018-02-13T02:36:17.386Z,-2.70
2018-02-13T02:38:45.314Z,-2.70
2018-02-13T02:41:13.188Z,-2.60
2018-02-13T02:43:41.124Z,-2.60
2018-02-13T02:46:08.994Z,-2.60
2018-02-13T02:48:36.921Z,-2.50
2018-02-13T02:51:04.802Z,-2.50
2018-02-13T02:53:32.745Z,-2.50
2018-02-13T02:56:00.631Z,-2.50
2018-02-13T02:58:28.560Z,-2.50
2018-02-13T03:00:56.440Z,-2.50
2018-02-13T03:03:25.129Z,-2.50
2018-02-13T03:05:53.020Z,-2.50
2018-02-13T03:08:20.940Z,-2.40
2018-02-13T03:10:48.811Z,-2.40
2018-02-13T03:13:16.743Z,-2.40
2018-02-13T03:15:44.631Z,-2.50
2018-02-13T03:18:12.557Z,-2.50
2018-02-13T03:20:40.436Z,-2.60
2018-02-13T03:23:08.383Z,-2.70
2018-02-13T03:25:36.270Z,-2.80
2018-02-13T03:28:04.203Z,-2.90
2018-02-13T03:30:32.852Z,-3.20
2018-02-13T03:33:00.769Z,-3.20
2018-02-13T03:35:28.649Z,-3.30
2018-02-13T03:37:56.679Z,-3.40
2018-02-13T03:40:24.571Z,-3.40
2018-02-13T03:42:53.251Z,-3.60
2018-02-13T03:45:21.190Z,-3.60
2018-02-13T03:47:49.116Z,-3.70
2018-02-13T03:50:16.982Z,-3.80
2018-02-13T03:52:48.652Z,-3.90
2018-02-13T03:55:16.532Z,-4.00
2018-02-13T03:57:44.502Z,-4.00
2018-02-13T04:00:12.397Z,-4.10
2018-02-13T04:02:40.337Z,-4.10
2018-02-13T04:05:08.217Z,-4.20
2018-02-13T04:07:36.142Z,-4.20
2018-02-13T04:10:04.814Z,-4.30
2018-02-13T04:12:32.698Z,-4.30
2018-02-13T04:15:00.634Z,-4.30
2018-02-13T04:17:28.518Z,-4.30
2018-02-13T04:19:56.452Z,-4.40
2018-02-13T04:22:24.547Z,-4.50
2018-02-13T04:24:52.495Z,-4.50
2018-02-13T04:27:20.401Z,-4.50
2018-02-13T04:29:48.515Z,-4.50
2018-02-13T04:32:16.420Z,-4.50
2018-02-13T04:34:44.368Z,-4.60
2018-02-13T04:37:12.266Z,-4.50
2018-02-13T04:39:40.213Z,-4.50
2018-02-13T04:42:08.115Z,-4.60
2018-02-13T04:44:36.061Z,-4.60
2018-02-13T04:47:03.961Z,-4.60
2018-02-13T04:49:31.906Z,-4.60
2018-02-13T04:51:59.886Z,-4.60
2018-02-13T04:54:27.846Z,-4.70
2018-02-13T04:56:55.732Z,-4.70
2018-02-13T04:59:23.676Z,-4.70
2018-02-13T05:01:51.564Z,-4.70
2018-02-13T05:04:19.502Z,-4.80
2018-02-13T05:06:47.396Z,-4.80
2018-02-13T05:09:15.344Z,-4.90
2018-02-13T05:11:43.252Z,-4.90
2018-02-13T05:14:11.969Z,-4.90
2018-02-13T05:16:43.672Z,-4.90
2018-02-13T05:19:15.549Z,-4.80
2018-02-13T05:21:49.707Z,-4.90
2018-02-13T05:24:21.154Z,-4.90
2018-02-13T05:26:52.525Z,-4.90
2018-02-13T05:29:20.648Z,-5.00
2018-02-13T05:31:51.698Z,-5.00
2018-02-13T05:34:20.428Z,-5.00
2018-02-13T05:36:48.365Z,-5.00
2018-02-13T05:39:17.080Z,-5.00
2018-02-13T05:41:44.996Z,-5.00
2018-02-13T05:44:16.410Z,-5.00
2018-02-13T05:46:44.481Z,-5.10
2018-02-13T05:49:12.418Z,-5.10
2018-02-13T05:51:40.316Z,-5.20
2018-02-13T05:54:08.260Z,-5.20
2018-02-13T05:56:36.213Z,-5.20
2018-02-13T05:59:04.932Z,-5.30
2018-02-13T06:01:32.834Z,-5.30
2018-02-13T06:04:00.832Z,-5.30
2018-02-13T06:06:28.743Z,-5.30
2018-02-13T06:08:56.687Z,-5.30
2018-02-13T06:11:24.589Z,-5.40
2018-02-13T06:13:52.660Z,-5.40
2018-02-13T06:16:20.565Z,-5.40
2018-02-13T06:18:48.523Z,-5.30
2018-02-13T06:21:16.434Z,-5.30
2018-02-13T06:23:44.384Z,-5.40
2018-02-13T06:26:12.284Z,-5.50
2018-02-13T06:28:40.241Z,-5.50
2018-02-13T06:31:08.143Z,-5.50
2018-02-13T06:33:36.109Z,-5.50
2018-02-13T06:36:04.036Z,-5.50
2018-02-13T06:38:31.983Z,-5.50
2018-02-13T06:40:59.885Z,-5.60
2018-02-13T06:43:29.866Z,-5.40
2018-02-13T06:45:57.765Z,-5.50
2018-02-13T06:48:25.707Z,-5.40
2018-02-13T06:50:53.609Z,-5.40
2018-02-13T06:53:22.327Z,-5.50
2018-02-13T06:55:50.224Z,-5.50
2018-02-13T06:58:18.169Z,-5.40
2018-02-13T07:00:46.058Z,-5.30
2018-02-13T07:03:14.012Z,-5.40
2018-02-13T07:05:41.971Z,-5.30
2018-02-13T07:08:09.882Z,-5.30
2018-02-13T07:10:37.832Z,-5.30
2018-02-13T07:13:06.977Z,-5.20
2018-02-13T07:15:35.680Z,-5.10
2018-02-13T07:18:03.564Z,-5.10
2018-02-13T07:20:31.501Z,-5.10
2018-02-13T07:23:00.153Z,-4.90
2018-02-13T07:25:28.101Z,-5.00
2018-02-13T07:27:55.992Z,-4.90
2018-02-13T07:30:23.954Z,-4.90
2018-02-13T07:32:51.862Z,-4.90
2018-02-13T07:35:20.564Z,-4.70
2018-02-13T07:37:48.452Z,-4.80
2018-02-13T07:40:16.400Z,-4.70
2018-02-13T07:42:48.166Z,-4.60
2018-02-13T07:45:16.123Z,-4.60
2018-02-13T07:47:44.004Z,-4.50
2018-02-13T07:50:11.952Z,-4.40
2018-02-13T07:52:39.843Z,-4.40
2018-02-13T07:55:07.793Z,-4.30
2018-02-13T07:57:35.698Z,-4.20
2018-02-13T08:00:03.731Z,-4.00
2018-02-13T08:02:32.384Z,-2.30
2018-02-13T08:05:00.315Z,-2.30
2018-02-13T08:07:28.197Z,-1.20
2018-02-13T08:09:56.116Z,0.30
2018-02-13T08:12:24.077Z,1.50
2018-02-13T08:14:52.008Z,2.40
2018-02-13T08:17:19.889Z,3.40
2018-02-13T08:19:47.803Z,4.30
2018-02-13T08:22:15.679Z,5.10
2018-02-13T08:24:43.589Z,5.70
2018-02-13T08:27:11.463Z,5.80
2018-02-13T08:29:39.388Z,5.40
2018-02-13T08:32:07.256Z,5.70
2018-02-13T08:34:35.188Z,6.60
2018-02-13T08:37:03.047Z,7.00
2018-02-13T08:39:30.963Z,7.70
2018-02-13T08:41:59.763Z,7.00
2018-02-13T08:44:27.647Z,6.90
2018-02-13T08:46:55.551Z,7.70
2018-02-13T08:49:23.462Z,7.40
2018-02-13T08:51:51.314Z,7.50
2018-02-13T08:54:19.221Z,6.50
2018-02-13T08:56:47.100Z,6.20
2018-02-13T08:59:15.003Z,7.20
2018-02-13T09:01:43.044Z,7.70
2018-02-13T09:04:10.960Z,8.90
2018-02-13T09:06:38.925Z,8.70
2018-02-13T09:09:07.731Z,10.40
2018-02-13T09:11:37.011Z,10.40
2018-02-13T09:14:04.932Z,10.90
2018-02-13T09:16:33.606Z,12.20
2018-02-13T09:19:01.515Z,12.10
2018-02-13T09:21:29.374Z,12.40
2018-02-13T09:23:57.390Z,12.60
2018-02-13T09:26:25.259Z,13.30
2018-02-13T09:28:53.992Z,13.00
2018-02-13T09:31:21.868Z,12.30
2018-02-13T09:33:49.891Z,11.50
2018-02-13T09:36:18.520Z,12.00
2018-02-13T09:38:46.406Z,12.00
2018-02-13T09:41:14.324Z,11.20
2018-02-13T09:43:42.184Z,9.40
2018-02-13T09:46:10.879Z,11.00
2018-02-13T09:48:38.750Z,11.00
2018-02-13T09:51:06.683Z,10.80
2018-02-13T09:53:34.559Z,10.60
2018-02-13T09:56:03.186Z,9.60
2018-02-13T09:58:31.342Z,10.00
2018-02-13T10:00:59.606Z,9.30
2018-02-13T10:03:31.443Z,8.80
2018-02-13T10:05:59.514Z,8.80
2018-02-13T10:08:27.473Z,8.80
2018-02-13T10:10:55.418Z,7.90
2018-02-13T10:13:23.352Z,7.50
2018-02-13T10:15:51.337Z,6.80
2018-02-13T10:18:19.260Z,7.20
2018-02-13T10:20:47.373Z,7.40
2018-02-13T10:23:15.303Z,7.40
2018-02-13T10:25:43.237Z,8.20
2018-02-13T10:28:11.118Z,8.60
2018-02-13T10:30:39.076Z,10.10
2018-02-13T10:33:06.971Z,10.30
2018-02-13T10:35:37.456Z,11.30
2018-02-13T10:38:05.360Z,10.80
2018-02-13T10:40:33.427Z,10.90
2018-02-13T10:43:01.348Z,10.90
2018-02-13T10:45:29.306Z,11.30
2018-02-13T10:47:57.220Z,11.60
2018-02-13T10:50:25.170Z,10.30
2018-02-13T10:52:59.484Z,10.50
2018-02-13T10:55:27.466Z,11.80
2018-02-13T10:57:55.352Z,11.80
2018-02-13T11:00:23.341Z,12.70
2018-02-13T11:02:51.250Z,12.40
2018-02-13T11:05:19.972Z,11.00
2018-02-13T11:07:48.046Z,10.90
2018-02-13T11:10:16.005Z,9.60
2018-02-13T11:12:43.897Z,8.90
2018-02-13T11:15:11.887Z,9.70
2018-02-13T11:17:39.769Z,9.90
2018-02-13T11:20:07.718Z,10.30
2018-02-13T11:22:37.657Z,10.60
2018-02-13T11:25:05.608Z,12.00
2018-02-13T11:27:33.495Z,11.50
2018-02-13T11:30:01.446Z,10.60
2018-02-13T11:32:29.409Z,11.20
2018-02-13T11:34:57.386Z,12.00
2018-02-13T11:37:25.267Z,12.20
2018-02-13T11:39:53.299Z,10.70
2018-02-13T11:42:21.183Z,10.30
2018-02-13T11:44:49.175Z,8.80
2018-02-13T11:47:17.063Z,9.30
2018-02-13T11:49:44.986Z,9.00
2018-02-13T11:52:13.044Z,8.50
2018-02-13T11:54:40.984Z,8.60
2018-02-13T11:57:08.868Z,7.40
2018-02-13T11:59:36.801Z,7.20
2018-02-13T12:02:04.706Z,9.00
2018-02-13T12:04:32.637Z,8.30
2018-02-13T12:07:00.519Z,8.20
2018-02-13T12:09:29.242Z,8.10
2018-02-13T12:11:57.146Z,8.10
2018-02-13T12:14:25.084Z,7.20
2018-02-13T12:16:53.221Z,7.40
2018-02-13T12:19:21.884Z,8.20
2018-02-13T12:21:49.893Z,8.20
2018-02-13T12:24:17.799Z,7.90
2018-02-13T12:26:45.780Z,6.90
2018-02-13T12:29:13.669Z,6.70
2018-02-13T12:31:41.625Z,7.50
2018-02-13T12:34:09.624Z,7.90
2018-02-13T12:36:38.339Z,6.70
2018-02-13T12:39:06.231Z,6.70
2018-02-13T12:41:34.200Z,7.90
2018-02-13T12:44:02.096Z,8.30
2018-02-13T12:46:30.079Z,8.40
2018-02-13T12:49:01.456Z,8.60
2018-02-13T12:51:29.596Z,8.50
2018-02-13T12:53:58.459Z,7.90
2018-02-13T12:56:26.439Z,7.10
2018-02-13T12:58:54.351Z,6.40
2018-02-13T13:01:23.073Z,5.50
2018-02-13T13:03:51.014Z,5.50
2018-02-13T13:06:19.053Z,5.30
2018-02-13T13:08:47.145Z,5.30
2018-02-13T13:11:15.080Z,5.20
2018-02-13T13:13:42.952Z,5.40
2018-02-13T13:16:10.897Z,6.20
2018-02-13T13:18:38.773Z,6.50
2018-02-13T13:21:06.716Z,6.40
2018-02-13T13:23:34.752Z,6.20
2018-02-13T13:26:02.759Z,5.70
2018-02-13T13:28:30.637Z,5.20
2018-02-13T13:30:58.584Z,5.50
2018-02-13T13:33:26.465Z,5.40
2018-02-13T13:35:54.394Z,5.20
2018-02-13T13:38:22.271Z,5.10
2018-02-13T13:40:51.044Z,4.80
2018-02-13T13:43:18.979Z,4.70
2018-02-13T13:45:46.919Z,4.80
2018-02-13T13:48:14.816Z,4.80
2018-02-13T13:50:44.190Z,5.10
2018-02-13T13:53:14.086Z,5.60
2018-02-13T13:55:42.019Z,5.60
2018-02-13T13:58:09.901Z,5.20
2018-02-13T14:00:37.870Z,5.00
2018-02-13T14:03:05.814Z,5.10
2018-02-13T14:05:33.746Z,5.00
2018-02-13T14:08:02.405Z,5.00
2018-02-13T14:10:30.345Z,4.70
2018-02-13T14:12:58.292Z,4.30
2018-02-13T14:15:26.232Z,4.30
2018-02-13T14:17:54.199Z,4.30
2018-02-13T14:20:22.147Z,4.20
2018-02-13T14:22:54.009Z,4.40
2018-02-13T14:25:21.934Z,4.40
2018-02-13T14:27:52.995Z,4.30
2018-02-13T14:30:20.973Z,4.50
2018-02-13T14:32:48.851Z,4.50
2018-02-13T14:35:18.930Z,4.60
2018-02-13T14:37:46.820Z,4.60
2018-02-13T14:40:14.755Z,4.50
2018-02-13T14:42:42.652Z,4.50
2018-02-13T14:45:10.585Z,4.50
2018-02-13T14:47:38.481Z,4.50
2018-02-13T14:50:06.418Z,4.40
2018-02-13T14:52:35.377Z,4.20
2018-02-13T14:55:03.382Z,4.20
2018-02-13T14:57:31.269Z,4.00
2018-02-13T14:59:59.159Z,3.90
2018-02-13T15:02:27.122Z,3.90
2018-02-13T15:04:55.017Z,3.80
2018-02-13T15:07:22.957Z,3.80
2018-02-13T15:09:50.871Z,3.60
2018-02-13T15:12:18.865Z,3.70
2018-02-13T15:14:47.619Z,3.70
2018-02-13T15:17:18.155Z,3.70
2018-02-13T15:19:46.078Z,3.60
2018-02-13T15:22:14.012Z,3.60
2018-02-13T15:24:41.947Z,3.50
2018-02-13T15:27:09.900Z,3.60
2018-02-13T15:29:37.782Z,3.60
2018-02-13T15:32:05.765Z,3.50
2018-02-13T15:34:33.689Z,3.50
2018-02-13T15:37:01.641Z,3.50
2018-02-13T15:39:29.536Z,3.50
2018-02-13T15:41:57.471Z,3.40
2018-02-13T15:44:25.352Z,3.30
2018-02-13T15:47:00.648Z,3.20
2018-02-13T15:49:28.531Z,3.10
2018-02-13T15:51:56.456Z,3.00
2018-02-13T15:54:24.340Z,2.90
2018-02-13T15:56:52.271Z,2.90
2018-02-13T15:59:20.159Z,2.80
2018-02-13T16:01:48.149Z,2.80
2018-02-13T16:04:16.079Z,2.70
2018-02-13T16:06:44.787Z,2.60
2018-02-13T16:09:12.665Z,2.60
2018-02-13T16:11:40.621Z,2.60
2018-02-13T16:14:08.505Z,2.40
2018-02-13T16:16:36.428Z,2.40
2018-02-13T16:19:04.316Z,2.30
2018-02-13T16:21:33.024Z,2.10
2018-02-13T16:24:00.953Z,2.10
2018-02-13T16:26:28.879Z,2.10
2018-02-13T16:28:56.769Z,2.00
2018-02-13T16:31:24.712Z,2.00
2018-02-13T16:33:56.012Z,1.90
2018-02-13T16:36:24.010Z,1.80
2018-02-13T16:38:51.894Z,1.80
2018-02-13T16:41:19.820Z,1.70
2018-02-13T16:43:47.697Z,1.50
2018-02-13T16:46:16.421Z,1.30
2018-02-13T16:48:44.358Z,1.30
2018-02-13T16:51:12.293Z,1.10
2018-02-13T16:53:40.198Z,0.80
2018-02-13T16:56:09.135Z,0.70
2018-02-13T16:58:37.016Z,0.50
2018-02-13T17:01:05.055Z,0.40
2018-02-13T17:09:01.908Z,-0.20
2018-02-13T17:11:42.297Z,-0.50
2018-02-13T17:17:06.248Z,-0.70
2018-02-13T17:19:43.539Z,-0.70
2018-02-13T17:22:11.935Z,-0.70
2018-02-13T17:24:40.670Z,-1.00
2018-02-13T17:29:53.554Z,-1.10
2018-02-13T17:32:22.946Z,-1.20
2018-02-13T17:37:49.846Z,-1.30
2018-02-13T17:42:57.072Z,-1.40
2018-02-13T17:45:25.826Z,-1.50
2018-02-13T17:48:07.634Z,-1.60
2018-02-13T17:50:37.071Z,-1.70
2018-02-13T17:53:11.719Z,-1.70
2018-02-13T17:56:07.632Z,-1.60
2018-02-13T17:58:44.903Z,-1.70
2018-02-13T18:01:13.319Z,-1.70
2018-02-13T18:03:41.690Z,-1.70
2018-02-13T18:06:15.662Z,-1.80
2018-02-13T18:08:52.008Z,-1.80
2018-02-13T18:11:33.174Z,-1.90
2018-02-13T18:14:04.561Z,-1.90
2018-02-13T18:16:33.366Z,-1.90
2018-02-13T18:19:01.856Z,-2.00
2018-02-13T18:21:35.041Z,-2.00
2018-02-13T18:24:09.185Z,-2.10
2018-02-13T18:26:43.160Z,-2.10
2018-02-13T18:29:20.110Z,-2.20
2018-02-13T18:31:56.364Z,-2.20
2018-02-13T18:34:25.185Z,-2.20
2018-02-13T18:37:05.376Z,-2.30
2018-02-13T18:39:42.646Z,-2.30
2018-02-13T18:42:15.435Z,-2.30
2018-02-13T18:44:47.889Z,-2.30
2018-02-13T18:55:24.059Z,-2.50
2018-02-13T19:00:41.860Z,-2.50
2018-02-13T19:03:12.053Z,-2.60
2018-02-13T19:05:41.646Z,-2.60
2018-02-13T19:08:10.056Z,-2.60
2018-02-13T19:10:38.364Z,-2.70
2018-02-13T19:13:07.200Z,-2.70
2018-02-13T19:15:36.100Z,-2.70
2018-02-13T19:18:04.143Z,-2.70
2018-02-13T19:20:34.527Z,-2.80
2018-02-13T19:23:02.638Z,-2.90
2018-02-13T19:25:31.035Z,-2.90
2018-02-13T19:28:00.450Z,-2.90
2018-02-13T19:30:29.290Z,-3.00
2018-02-13T19:32:58.595Z,-3.10
2018-02-13T19:35:26.854Z,-3.10
2018-02-13T19:37:56.363Z,-3.10
2018-02-13T19:40:24.630Z,-3.20
2018-02-13T19:42:54.435Z,-3.20
2018-02-13T19:45:23.988Z,-3.20
2018-02-13T19:47:52.025Z,-3.30
2018-02-13T19:50:22.590Z,-3.30
2018-02-13T19:52:53.335Z,-3.30
2018-02-13T19:55:21.764Z,-3.30
2018-02-13T19:57:50.089Z,-3.30
2018-02-13T20:00:19.482Z,-3.40
2018-02-13T20:02:49.313Z,-3.40
2018-02-13T20:05:17.875Z,-3.40
2018-02-13T20:07:46.567Z,-3.40
2018-02-13T20:10:16.446Z,-3.50
2018-02-13T20:12:44.783Z,-3.50
2018-02-13T20:15:13.754Z,-3.50
2018-02-13T20:17:42.207Z,-3.50
2018-02-13T20:20:10.767Z,-3.60
2018-02-13T20:22:39.736Z,-3.60
2018-02-13T20:25:08.540Z,-3.70
2018-02-13T20:27:37.414Z,-3.70
2018-02-13T20:30:06.229Z,-3.70
2018-02-13T20:32:34.567Z,-3.80
2018-02-13T20:35:02.788Z,-3.80
2018-02-13T20:37:31.803Z,-3.80
2018-02-13T20:40:00.408Z,-3.80
2018-02-13T20:42:29.755Z,-3.80
2018-02-13T20:44:57.660Z,-3.80
2018-02-13T20:47:35.177Z,-3.90
2018-02-13T20:50:03.668Z,-3.90
2018-02-13T20:52:32.391Z,-4.00
2018-02-13T20:55:01.662Z,-4.00
2018-02-13T20:57:29.606Z,-4.00
2018-02-13T20:59:59.447Z,-4.00
2018-02-13T21:02:27.558Z,-4.10
2018-02-13T21:04:56.288Z,-4.10
2018-02-13T21:07:26.354Z,-4.10
2018-02-13T21:09:54.673Z,-4.10
2018-02-13T21:12:22.931Z,-4.10
2018-02-13T21:14:53.781Z,-4.10
2018-02-13T21:17:21.724Z,-4.00
2018-02-13T21:19:49.692Z,-3.90
2018-02-13T21:22:18.700Z,-3.80
2018-02-13T21:24:47.409Z,-3.80
2018-02-13T21:27:15.355Z,-3.80
2018-02-13T21:29:45.561Z,-3.30
2018-02-13T21:32:13.514Z,-3.30
2018-02-13T21:34:41.422Z,-3.30
2018-02-13T21:37:09.426Z,-3.30
2018-02-13T21:39:37.360Z,-3.40
2018-02-13T21:42:06.196Z,-3.50
2018-02-13T21:44:34.160Z,-3.50
2018-02-13T21:47:02.059Z,-3.40
2018-02-13T21:49:30.029Z,-3.30
2018-02-13T21:51:57.946Z,-3.20
2018-02-13T21:54:26.031Z,-2.70
2018-02-13T21:56:53.939Z,-2.50
2018-02-13T21:59:21.888Z,-2.20
2018-02-13T22:01:51.824Z,-1.90
2018-02-13T22:04:19.764Z,-1.90
2018-02-13T22:06:47.656Z,-1.80
2018-02-13T22:09:15.627Z,-1.70
2018-02-13T22:11:43.512Z,-1.70
2018-02-13T22:14:11.450Z,-1.70
2018-02-13T22:16:39.384Z,-1.80
2018-02-13T22:19:07.323Z,-1.80
2018-02-13T22:21:35.202Z,-1.70
2018-02-13T22:24:03.149Z,-1.70
2018-02-13T22:26:31.041Z,-1.80
2018-02-13T22:28:59.738Z,-1.70
2018-02-13T22:31:28.400Z,-1.70
2018-02-13T22:33:56.268Z,-1.70
2018-02-13T22:36:24.262Z,-1.80
2018-02-13T22:38:52.167Z,-1.70
2018-02-13T22:41:20.250Z,-1.80
2018-02-13T22:43:48.192Z,-1.80
2018-02-13T22:46:16.134Z,-1.70
2018-02-13T22:48:44.066Z,-1.80
2018-02-13T22:51:12.066Z,-1.70
2018-02-13T22:53:40.196Z,-1.70
2018-02-13T22:56:08.156Z,-1.70
2018-02-13T22:58:36.790Z,-1.80
2018-02-13T23:01:05.794Z,-1.80
2018-02-13T23:03:33.676Z,-1.70
2018-02-13T23:06:02.366Z,-1.50
2018-02-13T23:08:34.368Z,-1.50
2018-02-13T23:11:02.568Z,-1.50
2018-02-13T23:13:30.850Z,-1.50
2018-02-13T23:15:59.345Z,-1.50
2018-02-13T23:18:27.896Z,-1.60
2018-02-13T23:20:56.523Z,-1.70
2018-02-13T23:23:24.471Z,-1.70
2018-02-13T23:25:52.411Z,-1.60
2018-02-13T23:28:20.296Z,-1.50
2018-02-13T23:30:48.216Z,-1.60
2018-02-13T23:33:16.097Z,-1.60
2018-02-13T23:35:43.959Z,-1.70
2018-02-13T23:38:11.874Z,-1.80
2018-02-13T23:40:39.791Z,-1.80
2018-02-13T23:43:08.250Z,-1.70
2018-02-13T23:45:36.949Z,-1.70
2018-02-13T23:48:05.511Z,-1.70
2018-02-13T23:50:33.442Z,-1.70
2018-02-13T23:53:02.674Z,-1.80
2018-02-13T23:55:31.440Z,-1.80
2018-02-13T23:57:59.363Z,-1.80
